Time;durP1;ratioP1;P1;durP2;ratioP2;P2;SDS_P1;SDS_P2;PMS_P1;PMS_P2;Temp;Humidity;BMP_temperature;BMP_pressure;BME280_temperature;BME280_humidity;BME280_pressure;Samples;Min_cycle;Max_cycle;Signal;HPM_P1;HPM_P2
2023/04/05 00:01:31;;;;;;;17.00;10.90;;;;;;;0.22;77.79;102415.75;4911706;29;20106;-78
2023/04/05 00:03:58;;;;;;;15.95;10.00;;;;;;;0.20;77.13;102409.63;4897172;29;20075;-78
2023/04/05 00:06:27;;;;;;;18.88;11.57;;;;;;;0.19;77.42;102414.69;4903972;29;20044;-78
2023/04/05 00:08:54;;;;;;;22.05;11.50;;;;;;;0.15;76.01;102408.50;4870653;29;20080;-78
2023/04/05 00:11:24;;;;;;;16.63;11.18;;;;;;;0.12;76.46;102419.50;4902830;29;20400;-78
2023/04/05 00:13:50;;;;;;;17.52;11.20;;;;;;;0.06;76.42;102415.69;4894909;29;20107;-78
2023/04/05 00:16:17;;;;;;;18.83;10.15;;;;;;;-0.02;77.17;102403.25;4914484;29;20461;-78
2023/04/05 00:18:48;;;;;;;16.55;9.75;;;;;;;0.02;77.50;102413.75;4896638;29;20081;-78
2023/04/05 00:21:23;;;;;;;18.40;10.05;;;;;;;-0.06;76.41;102410.72;4913758;29;20043;-77
2023/04/05 00:23:50;;;;;;;17.65;10.05;;;;;;;-0.15;77.32;102400.78;4882988;29;20040;-78
2023/04/05 00:26:16;;;;;;;15.57;10.32;;;;;;;-0.16;76.90;102406.72;4896619;29;20048;-78
2023/04/05 00:28:41;;;;;;;16.52;10.43;;;;;;;-0.20;77.94;102408.25;4912191;29;20156;-78
2023/04/05 00:31:07;;;;;;;15.13;9.43;;;;;;;-0.26;77.25;102401.84;4891572;29;20127;-78
2023/04/05 00:33:32;;;;;;;19.55;9.80;;;;;;;-0.24;76.40;102400.28;4882645;29;20044;-78
2023/04/05 00:36:08;;;;;;;16.50;10.43;;;;;;;-0.28;77.07;102396.63;4886889;29;20044;-78
2023/04/05 00:38:33;;;;;;;16.42;10.63;;;;;;;-0.32;76.95;102399.81;4886516;29;20040;-78
2023/04/05 00:40:58;;;;;;;17.23;10.77;;;;;;;-0.38;78.12;102394.31;4929625;29;20146;-78
2023/04/05 00:43:24;;;;;;;18.73;11.48;;;;;;;-0.42;78.66;102384.63;4892858;29;20035;-78
2023/04/05 00:45:52;;;;;;;16.65;11.30;;;;;;;-0.42;78.68;102389.78;4886897;29;20417;-78
2023/04/05 00:48:18;;;;;;;16.40;11.02;;;;;;;-0.44;79.37;102392.28;4886900;29;20130;-78
2023/04/05 00:50:45;;;;;;;14.80;9.55;;;;;;;-0.44;79.45;102401.69;4885821;29;20113;-78
2023/04/05 00:53:11;;;;;;;17.38;11.23;;;;;;;-0.46;79.48;102399.03;4886207;29;20058;-77
2023/04/05 00:55:37;;;;;;;24.10;10.65;;;;;;;-0.52;79.57;102396.06;4885020;29;20048;-78
2023/04/05 00:58:03;;;;;;;16.65;9.68;;;;;;;-0.56;79.58;102391.53;4901010;29;20078;-78
2023/04/05 01:00:30;;;;;;;17.45;9.88;;;;;;;-0.60;79.97;102390.50;4903722;29;20130;-78
2023/04/05 01:03:02;;;;;;;16.15;10.23;;;;;;;-0.63;81.49;102391.97;4884667;29;20454;-77
2023/04/05 01:05:39;;;;;;;16.88;10.45;;;;;;;-0.59;81.65;102388.78;4911088;29;20047;-78
2023/04/05 01:08:17;;;;;;;20.05;10.82;;;;;;;-0.59;82.14;102393.94;4903214;29;20036;-78
2023/04/05 01:10:53;;;;;;;15.98;10.30;;;;;;;-0.61;81.64;102392.97;4920767;29;20457;-78
2023/04/05 01:13:19;;;;;;;17.23;11.07;;;;;;;-0.66;82.00;102391.81;4899984;29;20036;-77
2023/04/05 01:15:46;;;;;;;15.77;10.15;;;;;;;-0.64;82.77;102396.25;4900481;29;20350;-78
2023/04/05 01:18:13;;;;;;;17.73;10.43;;;;;;;-0.67;82.63;102390.94;4885884;29;20141;-78
2023/04/05 01:20:45;;;;;;;13.77;9.45;;;;;;;-0.71;81.48;102382.13;4915730;29;20036;-78
2023/04/05 01:23:29;;;;;;;14.00;9.77;;;;;;;-0.73;80.40;102388.00;4900451;29;20456;-78
2023/04/05 01:26:07;;;;;;;14.65;9.80;;;;;;;-0.81;79.38;102390.09;4900960;29;20040;-78
2023/04/05 01:28:51;;;;;;;17.38;9.35;;;;;;;-0.81;80.37;102390.09;4912517;29;20044;-78
2023/04/05 01:31:30;;;;;;;13.85;9.32;;;;;;;-0.92;79.61;102381.75;4915640;29;20092;-78
2023/04/05 01:34:42;;;;;;;15.40;9.73;;;;;;;-0.92;80.86;102380.84;4918433;29;20044;-78
2023/04/05 01:37:11;;;;;;;13.52;9.32;;;;;;;-1.08;80.38;102364.50;4874289;29;20128;-78
2023/04/05 01:39:38;;;;;;;13.65;8.63;;;;;;;-1.08;80.18;102369.66;4877571;29;20571;-78
2023/04/05 01:42:04;;;;;;;16.42;9.80;;;;;;;-1.11;80.59;102372.00;4885960;29;20108;-78
2023/04/05 01:44:29;;;;;;;14.98;9.30;;;;;;;-1.15;80.78;102366.59;4903456;29;20055;-78
2023/04/05 01:46:55;;;;;;;16.70;9.93;;;;;;;-1.17;81.11;102363.94;4900170;29;20040;-77
2023/04/05 01:49:22;;;;;;;16.30;10.23;;;;;;;-1.22;81.47;102355.94;4915506;29;20481;-78
2023/04/05 01:51:48;;;;;;;17.88;11.13;;;;;;;-1.23;81.47;102363.56;4907958;29;20425;-78
2023/04/05 01:54:13;;;;;;;15.05;10.02;;;;;;;-1.22;81.15;102363.66;4899733;29;20045;-77
2023/04/05 01:56:39;;;;;;;13.38;8.80;;;;;;;-1.26;80.58;102363.38;4899699;29;20051;-78
2023/04/05 01:59:04;;;;;;;14.15;9.75;;;;;;;-1.28;80.73;102355.59;4914979;29;20091;-78
2023/04/05 02:01:30;;;;;;;16.00;8.52;;;;;;;-1.31;80.96;102354.50;4885869;29;20111;-83
2023/04/05 02:03:55;;;;;;;16.20;10.15;;;;;;;-1.37;81.20;102352.44;4885776;29;20048;-83
2023/04/05 02:06:21;;;;;;;15.73;10.32;;;;;;;-1.37;81.57;102367.00;4901385;29;20039;-83
2023/04/05 02:08:47;;;;;;;16.90;10.05;;;;;;;-1.36;81.48;102366.19;4897739;29;20440;-84
2023/04/05 02:11:15;;;;;;;12.65;9.23;;;;;;;-1.41;82.56;102356.50;4884730;29;20051;-78
2023/04/05 02:13:41;;;;;;;14.30;9.90;;;;;;;-1.42;82.64;102357.31;4884308;29;20411;-78
2023/04/05 02:16:06;;;;;;;15.73;10.32;;;;;;;-1.44;81.71;102358.00;4898140;29;20096;-78
2023/04/05 02:18:32;;;;;;;14.93;9.35;;;;;;;-1.48;81.62;102356.03;4881695;29;20036;-78
2023/04/05 02:21:06;;;;;;;16.63;9.82;;;;;;;-1.50;83.59;102353.34;4898122;29;20139;-78
2023/04/05 02:23:33;;;;;;;19.08;10.68;;;;;;;-1.58;82.64;102346.84;4911285;29;20044;-84
2023/04/05 02:25:59;;;;;;;16.05;10.00;;;;;;;-1.58;84.06;102346.84;4899050;29;20513;-84
2023/04/05 02:28:25;;;;;;;17.20;10.82;;;;;;;-1.63;84.66;102344.00;4913906;29;20044;-84
2023/04/05 02:30:50;;;;;;;17.35;10.75;;;;;;;-1.63;84.35;102341.44;4903709;29;20042;-84
2023/04/05 02:33:16;;;;;;;14.63;10.45;;;;;;;-1.67;83.81;102343.72;4880405;29;20048;-84
2023/04/05 02:35:41;;;;;;;16.55;9.73;;;;;;;-1.70;82.58;102343.53;4883820;29;20037;-83
2023/04/05 02:38:08;;;;;;;16.60;10.63;;;;;;;-1.77;83.39;102339.69;4878656;29;20473;-83
2023/04/05 02:40:34;;;;;;;15.93;9.95;;;;;;;-1.72;82.85;102348.56;4884934;29;20040;-83
2023/04/05 02:42:59;;;;;;;15.52;10.32;;;;;;;-1.79;83.48;102342.16;4897493;29;20112;-84
2023/04/05 02:45:26;;;;;;;15.45;10.02;;;;;;;-1.83;82.80;102342.75;4879980;29;20077;-83
2023/04/05 02:47:52;;;;;;;18.95;10.40;;;;;;;-1.83;82.82;102345.31;4976163;23;20055;-78
2023/04/05 02:50:19;;;;;;;14.68;10.25;;;;;;;-1.83;83.38;102337.59;4916526;29;20103;-83
2023/04/05 02:52:46;;;;;;;16.00;10.38;;;;;;;-1.87;83.27;102345.03;4916137;29;20134;-83
2023/04/05 02:55:12;;;;;;;16.45;9.57;;;;;;;-1.89;82.71;102337.22;4899517;29;20039;-83
2023/04/05 02:57:38;;;;;;;17.35;10.52;;;;;;;-1.87;83.76;102329.63;4932401;29;20498;-83
2023/04/05 03:00:05;;;;;;;19.00;10.98;;;;;;;-1.93;83.08;102330.13;4912404;29;20469;-83
2023/04/05 03:02:30;;;;;;;15.82;10.88;;;;;;;-1.96;83.32;102317.09;4892599;29;20519;-84
2023/04/05 03:04:56;;;;;;;15.52;10.10;;;;;;;-1.98;82.83;102322.13;4899873;29;20107;-83
2023/04/05 03:07:24;;;;;;;16.38;10.45;;;;;;;-2.03;83.17;102317.50;4916080;29;20138;-78
2023/04/05 03:09:50;;;;;;;14.88;10.68;;;;;;;-2.06;82.93;102317.31;4922511;29;20444;-78
2023/04/05 03:12:15;;;;;;;17.95;9.98;;;;;;;-2.13;83.17;102322.03;4925875;29;20122;-78
2023/04/05 03:14:41;;;;;;;21.60;11.07;;;;;;;-2.15;83.03;102320.19;4935819;29;20362;-78
2023/04/05 03:17:07;;;;;;;18.50;11.50;;;;;;;-2.13;84.28;102322.03;4918001;29;20090;-78
2023/04/05 03:19:33;;;;;;;19.60;11.77;;;;;;;-2.06;86.42;102317.31;4902393;29;20395;-84
2023/04/05 03:21:58;;;;;;;16.77;11.15;;;;;;;-2.10;86.80;102311.06;4902436;29;20058;-84
2023/04/05 03:24:23;;;;;;;16.85;11.02;;;;;;;-2.10;85.64;102305.94;4886352;29;20587;-84
2023/04/05 03:26:49;;;;;;;17.70;11.05;;;;;;;-2.11;84.68;102309.31;4886617;29;20663;-84
2023/04/05 03:29:16;;;;;;;18.58;11.27;;;;;;;-2.22;84.09;102298.34;4886750;29;20039;-84
2023/04/05 03:31:41;;;;;;;16.27;10.82;;;;;;;-2.20;84.87;102296.75;4901664;29;20040;-84
2023/04/05 03:34:07;;;;;;;15.55;10.30;;;;;;;-2.19;84.89;102315.63;4901730;29;20517;-84
2023/04/05 03:36:40;;;;;;;15.00;11.07;;;;;;;-2.25;84.97;102308.41;4917810;29;20078;-84
2023/04/05 03:39:10;;;;;;;21.10;11.43;;;;;;;-2.15;87.96;102309.91;4916534;29;20028;-84
2023/04/05 03:41:36;;;;;;;21.40;12.55;;;;;;;-2.19;88.74;102300.22;4926375;29;20074;-84
2023/04/05 03:44:02;;;;;;;18.73;11.85;;;;;;;-2.13;89.21;102308.31;4915790;29;20135;-84
2023/04/05 03:46:28;;;;;;;20.05;12.45;;;;;;;-2.15;89.58;102297.94;4934844;29;20122;-83
2023/04/05 03:48:53;;;;;;;19.25;12.48;;;;;;;-2.17;88.73;102304.66;4917473;29;20488;-84
2023/04/05 03:51:19;;;;;;;16.80;10.93;;;;;;;-2.22;87.23;102307.72;4931444;29;20074;-83
2023/04/05 03:53:45;;;;;;;17.17;11.07;;;;;;;-2.24;88.30;102302.50;4912333;29;20048;-83
2023/04/05 03:56:11;;;;;;;20.73;11.18;;;;;;;-2.30;87.52;102302.09;4897970;29;20040;-83
2023/04/05 03:58:37;;;;;;;17.15;11.93;;;;;;;-2.37;87.19;102300.81;4898845;29;20094;-83
2023/04/05 04:01:05;;;;;;;18.38;11.27;;;;;;;-2.38;86.74;102298.16;4912035;29;20095;-83
2023/04/05 04:03:30;;;;;;;17.10;10.95;;;;;;;-2.44;86.56;102289.25;4883106;29;20131;-83
2023/04/05 04:05:56;;;;;;;20.65;11.63;;;;;;;-2.43;87.16;102290.13;4901921;29;20218;-83
2023/04/05 04:08:22;;;;;;;18.88;11.25;;;;;;;-2.48;86.88;102286.41;4899555;29;20125;-83
2023/04/05 04:10:48;;;;;;;19.15;11.45;;;;;;;-2.50;86.28;102295.66;4929478;29;20678;-83
2023/04/05 04:13:14;;;;;;;18.58;10.98;;;;;;;-2.51;86.22;102291.34;4899579;29;20138;-83
2023/04/05 04:15:40;;;;;;;17.58;10.63;;;;;;;-2.49;86.01;102284.63;4914380;29;20551;-83
2023/04/05 04:18:06;;;;;;;17.58;10.73;;;;;;;-2.55;85.78;102279.97;4899904;29;20043;-83
2023/04/05 04:20:31;;;;;;;17.33;11.65;;;;;;;-2.48;85.71;102288.97;4896727;29;20050;-77
2023/04/05 04:22:57;;;;;;;21.20;11.75;;;;;;;-2.46;86.01;102292.50;4900639;29;20441;-77
2023/04/05 04:25:25;;;;;;;16.20;11.07;;;;;;;-2.46;86.29;102284.81;4897903;29;20044;-77
2023/04/05 04:27:51;;;;;;;19.30;11.25;;;;;;;-2.48;85.88;102278.72;4915626;29;20048;-77
2023/04/05 04:30:21;;;;;;;16.95;10.93;;;;;;;-2.50;85.93;102296.56;4916294;29;20475;-77
2023/04/05 04:32:58;;;;;;;17.90;10.98;;;;;;;-2.52;85.64;102290.44;4912178;29;20051;-77
2023/04/05 04:35:28;;;;;;;18.90;11.82;;;;;;;-2.57;85.54;102290.94;4923741;29;20051;-77
2023/04/05 04:37:54;;;;;;;19.45;12.10;;;;;;;-2.57;85.61;102290.94;4897444;29;20099;-83
2023/04/05 04:40:20;;;;;;;19.55;11.40;;;;;;;-2.58;85.28;102295.19;4910591;29;20043;-84
2023/04/05 04:42:45;;;;;;;16.70;11.32;;;;;;;-2.62;84.96;102293.19;4912998;29;20036;-83
2023/04/05 04:45:16;;;;;;;18.33;11.70;;;;;;;-2.62;85.05;102288.06;4896572;29;20051;-83
2023/04/05 04:47:45;;;;;;;20.40;12.32;;;;;;;-2.61;85.36;102292.41;4914687;29;20048;-83
2023/04/05 04:50:12;;;;;;;18.95;11.77;;;;;;;-2.66;85.39;102280.94;4906868;29;20091;-83
2023/04/05 04:52:39;;;;;;;18.00;11.70;;;;;;;-2.62;85.32;102291.50;4892903;29;20044;-84
2023/04/05 04:55:07;;;;;;;18.02;11.75;;;;;;;-2.66;85.55;102280.94;4927892;29;20613;-84
2023/04/05 04:57:32;;;;;;;19.25;11.38;;;;;;;-2.59;85.07;102298.53;4926044;29;20039;-83
2023/04/05 04:59:57;;;;;;;18.73;12.05;;;;;;;-2.58;85.34;102284.91;4894480;29;20090;-84
2023/04/05 05:02:27;;;;;;;16.70;11.30;;;;;;;-2.57;85.67;102296.06;4895367;29;20046;-78
2023/04/05 05:04:53;;;;;;;22.10;11.80;;;;;;;-2.60;84.91;102296.78;4914186;29;20387;-83
2023/04/05 05:07:19;;;;;;;18.05;11.02;;;;;;;-2.61;85.20;102289.84;4890467;29;20043;-83
2023/04/05 05:10:06;;;;;;;17.95;11.88;;;;;;;-2.58;85.20;102290.03;4913129;29;20047;-83
2023/04/05 05:12:34;;;;;;;19.33;12.20;;;;;;;-2.59;85.62;102283.13;4899299;29;20032;-83
2023/04/05 05:14:59;;;;;;;16.80;11.30;;;;;;;-2.55;85.23;102289.38;4930888;29;20071;-83
2023/04/05 05:17:25;;;;;;;20.05;12.18;;;;;;;-2.59;84.85;102283.13;4919571;29;20077;-77
2023/04/05 05:19:50;;;;;;;21.20;12.13;;;;;;;-2.56;84.81;102285.00;4934620;29;20225;-76
2023/04/05 05:22:16;;;;;;;22.05;12.40;;;;;;;-2.56;84.75;102283.31;4917627;29;20047;-77
2023/04/05 05:24:44;;;;;;;16.85;11.23;;;;;;;-2.51;84.66;102291.34;4904162;29;20039;-77
2023/04/05 05:27:09;;;;;;;20.20;11.82;;;;;;;-2.54;84.96;102286.91;4932502;29;20094;-76
2023/04/05 05:29:34;;;;;;;20.95;12.55;;;;;;;-2.48;84.97;102291.53;4888143;29;20048;-77
2023/04/05 05:32:00;;;;;;;19.88;11.60;;;;;;;-2.47;85.16;102289.06;4902172;29;20043;-77
2023/04/05 05:34:26;;;;;;;23.00;13.02;;;;;;;-2.45;86.06;102281.47;4902351;29;20134;-77
2023/04/05 05:36:52;;;;;;;19.33;12.80;;;;;;;-2.37;85.75;102284.50;4916251;29;20047;-77
2023/04/05 05:39:19;;;;;;;19.63;13.35;;;;;;;-2.30;85.91;102286.69;4883343;29;20074;-77
2023/04/05 05:41:45;;;;;;;22.75;12.85;;;;;;;-2.27;85.75;102285.22;4917940;29;20046;-77
2023/04/05 05:44:10;;;;;;;22.08;13.30;;;;;;;-2.19;86.44;102279.69;4918801;29;20138;-77
2023/04/05 05:46:36;;;;;;;24.35;13.93;;;;;;;-2.13;86.86;102272.34;4891134;29;20429;-77
2023/04/05 05:49:01;;;;;;;20.80;13.35;;;;;;;-2.04;87.18;102280.66;4922881;29;20036;-77
2023/04/05 05:51:27;;;;;;;24.73;14.40;;;;;;;-1.96;88.24;102275.97;4919500;29;20376;-77
2023/04/05 05:53:52;;;;;;;26.60;14.45;;;;;;;-1.92;88.73;102272.81;4919140;29;20484;-77
2023/04/05 05:56:18;;;;;;;21.90;13.68;;;;;;;-1.80;88.50;102283.81;4902623;29;20404;-77
2023/04/05 05:58:43;;;;;;;24.65;13.73;;;;;;;-1.71;87.64;102280.97;4901610;29;20351;-77
2023/04/05 06:01:11;;;;;;;20.30;13.27;;;;;;;-1.57;87.65;102284.38;4903482;29;20330;-83
2023/04/05 06:03:37;;;;;;;24.92;13.43;;;;;;;-1.47;88.24;102288.38;4902606;29;20487;-83
2023/04/05 06:06:04;;;;;;;18.85;13.15;;;;;;;-1.34;88.08;102285.75;4919281;29;20039;-84
2023/04/05 06:08:31;;;;;;;25.10;15.18;;;;;;;-1.19;87.71;102288.38;4919527;29;20462;-83
2023/04/05 06:10:57;;;;;;;38.47;18.30;;;;;;;-1.01;87.50;102288.56;4935497;29;20036;-84
2023/04/05 06:13:22;;;;;;;21.35;13.95;;;;;;;-0.79;87.55;102279.50;4903431;29;20510;-84
2023/04/05 06:15:49;;;;;;;24.50;14.73;;;;;;;-0.53;87.72;102283.59;4903710;29;20043;-84
2023/04/05 06:18:14;;;;;;;27.35;15.48;;;;;;;-0.28;87.13;102285.84;4919241;29;20043;-84
2023/04/05 06:20:43;;;;;;;26.13;16.75;;;;;;;0.07;88.16;102284.34;4918705;29;20066;-84
2023/04/05 06:23:09;;;;;;;21.90;15.82;;;;;;;0.42;87.28;102281.88;4903560;29;20404;-84
2023/04/05 06:25:35;;;;;;;22.40;16.02;;;;;;;0.83;86.02;102296.03;4903036;29;20051;-83
2023/04/05 06:28:02;;;;;;;23.40;15.15;;;;;;;1.21;83.66;102289.34;4934846;29;20095;-84
2023/04/05 06:30:30;;;;;;;22.63;14.80;;;;;;;1.62;82.64;102292.19;4919083;29;20368;-83
2023/04/05 06:32:56;;;;;;;19.90;14.70;;;;;;;1.96;80.18;102289.50;4902335;29;20138;-83
2023/04/05 06:35:22;;;;;;;18.90;13.82;;;;;;;2.23;76.19;102289.03;4901591;29;20138;-82
2023/04/05 06:37:47;;;;;;;19.25;14.00;;;;;;;2.76;77.63;102292.25;4903414;29;20047;-83
2023/04/05 06:40:14;;;;;;;19.95;13.38;;;;;;;3.01;74.64;102295.88;4919253;29;20058;-83
2023/04/05 06:42:39;;;;;;;19.58;13.57;;;;;;;3.48;75.12;102284.03;4901675;29;20058;-83
2023/04/05 06:45:06;;;;;;;15.82;12.38;;;;;;;3.63;71.16;102286.34;4886896;29;20482;-83
2023/04/05 06:47:35;;;;;;;17.83;13.50;;;;;;;4.08;71.88;102281.19;4902747;29;20056;-84
2023/04/05 06:50:01;;;;;;;19.02;12.93;;;;;;;4.35;69.45;102280.44;4918036;29;20032;-84
2023/04/05 06:52:28;;;;;;;19.90;12.68;;;;;;;4.91;68.63;102292.81;4901843;29;20054;-84
2023/04/05 06:54:53;;;;;;;16.85;12.48;;;;;;;5.12;65.91;102284.88;4918192;29;20036;-84
2023/04/05 06:57:19;;;;;;;16.90;11.65;;;;;;;5.46;63.17;102283.38;4900958;29;20047;-84
2023/04/05 06:59:44;;;;;;;16.88;11.90;;;;;;;5.51;61.52;102290.50;4902920;29;20138;-84
2023/04/05 07:02:10;;;;;;;18.88;11.60;;;;;;;6.04;63.28;102285.25;4902894;29;20090;-84
2023/04/05 07:04:36;;;;;;;15.45;11.43;;;;;;;6.15;59.74;102298.59;4901730;29;20463;-84
2023/04/05 07:07:02;;;;;;;14.05;11.20;;;;;;;6.68;60.83;102293.16;4902180;29;20488;-85
2023/04/05 07:09:31;;;;;;;14.18;10.98;;;;;;;7.02;58.15;102295.78;4902426;29;20036;-84
2023/04/05 07:11:57;;;;;;;14.77;11.18;;;;;;;7.13;57.07;102291.75;4918006;29;20591;-84
2023/04/05 07:14:23;;;;;;;13.48;10.70;;;;;;;7.00;56.06;102289.66;4931721;29;20028;-84
2023/04/05 07:16:48;;;;;;;16.88;10.90;;;;;;;7.28;58.24;102286.91;4887465;29;20479;-81
2023/04/05 07:19:14;;;;;;;16.85;11.13;;;;;;;7.79;57.40;102295.94;4884711;29;20051;-81
2023/04/05 07:21:39;;;;;;;15.30;10.73;;;;;;;7.93;54.88;102291.06;4891349;29;20036;-81
2023/04/05 07:24:05;;;;;;;16.85;10.23;;;;;;;8.36;54.07;102292.81;4899869;29;20044;-81
2023/04/05 07:26:34;;;;;;;14.50;10.18;;;;;;;8.54;52.36;102282.78;4911333;29;20103;-81
2023/04/05 07:29:01;;;;;;;15.95;11.32;;;;;;;8.98;54.49;102287.97;4903897;29;20048;-81
2023/04/05 07:31:27;;;;;;;13.38;10.32;;;;;;;8.97;51.43;102288.81;4884170;29;20068;-81
2023/04/05 07:33:53;;;;;;;14.40;10.70;;;;;;;9.38;52.31;102286.88;4886815;29;20403;-81
2023/04/05 07:36:18;;;;;;;14.27;10.13;;;;;;;9.89;51.88;102291.16;4881649;29;20040;-81
2023/04/05 07:38:43;;;;;;;11.20;9.07;;;;;;;10.05;48.23;102289.63;4900912;29;20055;-81
2023/04/05 07:41:10;;;;;;;12.23;9.80;;;;;;;10.42;51.03;102284.03;4901890;29;20048;-82
2023/04/05 07:43:36;;;;;;;14.07;10.18;;;;;;;10.67;47.46;102282.56;4886537;29;20047;-82
2023/04/05 07:46:03;;;;;;;13.02;9.45;;;;;;;11.00;48.86;102287.25;4933558;29;20059;-82
2023/04/05 07:48:29;;;;;;;12.32;9.68;;;;;;;11.22;48.10;102283.09;4931160;29;20087;-82
2023/04/05 07:50:54;;;;;;;10.95;9.50;;;;;;;11.71;47.56;102290.47;4896871;29;20052;-81
2023/04/05 07:53:20;;;;;;;15.45;9.68;;;;;;;12.25;46.49;102282.91;4901992;29;20447;-82
2023/04/05 07:55:46;;;;;;;13.02;10.07;;;;;;;12.12;42.62;102286.34;4917330;29;20123;-82
2023/04/05 07:58:11;;;;;;;12.02;9.85;;;;;;;12.15;45.15;102283.75;4918274;29;20096;-83
2023/04/05 08:00:37;;;;;;;11.18;9.32;;;;;;;12.13;44.70;102289.00;4885468;29;20096;-83
2023/04/05 08:03:03;;;;;;;11.65;8.98;;;;;;;12.24;43.20;102283.81;4884012;29;20158;-84
2023/04/05 08:05:29;;;;;;;14.18;10.02;;;;;;;12.27;43.42;102285.56;4930389;29;20040;-83
2023/04/05 08:07:56;;;;;;;12.95;9.98;;;;;;;12.36;43.57;102288.22;4932728;29;20043;-83
2023/04/05 08:10:22;;;;;;;13.43;9.30;;;;;;;12.33;44.58;102282.97;4901670;29;20139;-83
2023/04/05 08:12:48;;;;;;;13.65;10.15;;;;;;;12.22;43.28;102276.78;4901159;29;20426;-83
2023/04/05 08:15:13;;;;;;;16.52;10.13;;;;;;;12.52;43.86;102278.63;4901892;29;20039;-83
2023/04/05 08:17:39;;;;;;;13.57;9.77;;;;;;;12.71;42.78;102274.31;4901085;29;20047;-82
2023/04/05 08:20:06;;;;;;;12.32;9.40;;;;;;;12.44;40.48;102276.00;4899228;29;20040;-82
2023/04/05 08:22:31;;;;;;;12.45;8.90;;;;;;;12.82;40.70;102274.34;4885210;29;20406;-82
2023/04/05 08:24:57;;;;;;;11.88;9.88;;;;;;;12.67;41.23;102283.09;4897984;29;20040;-83
2023/04/05 08:27:22;;;;;;;13.27;9.57;;;;;;;12.43;40.34;102281.25;4913630;29;20134;-83
2023/04/05 08:30:07;;;;;;;12.77;9.15;;;;;;;12.74;42.45;102279.59;4910807;29;20040;-83
2023/04/05 08:32:34;;;;;;;12.25;9.05;;;;;;;12.88;42.02;102284.00;4914571;29;20488;-83
2023/04/05 08:34:59;;;;;;;14.30;9.07;;;;;;;13.04;39.06;102275.22;4921577;29;20070;-83
2023/04/05 08:37:25;;;;;;;11.48;8.45;;;;;;;13.32;38.97;102272.63;4913790;29;20476;-84
2023/04/05 08:39:50;;;;;;;13.88;8.82;;;;;;;13.38;38.09;102279.69;4921409;29;20048;-83
2023/04/05 08:42:22;;;;;;;13.55;8.80;;;;;;;13.69;39.97;102278.75;4916607;29;20046;-85
2023/04/05 08:44:51;;;;;;;13.10;8.90;;;;;;;13.51;37.13;102271.75;4918304;29;20048;-85
2023/04/05 08:47:18;;;;;;;11.73;8.52;;;;;;;13.34;38.98;102276.13;4921766;29;20048;-83
2023/04/05 08:49:44;;;;;;;15.35;8.40;;;;;;;13.56;37.61;102271.75;4916829;29;20126;-84
2023/04/05 08:52:10;;;;;;;11.95;8.65;;;;;;;14.24;39.57;102268.03;4909813;29;20036;-84
2023/04/05 08:54:36;;;;;;;11.45;8.63;;;;;;;13.27;36.41;102269.09;4903805;29;20051;-84
2023/04/05 08:57:04;;;;;;;13.43;8.88;;;;;;;13.83;39.30;102264.66;4918651;29;20063;-84
2023/04/05 08:59:34;;;;;;;12.55;8.45;;;;;;;13.65;38.65;102270.88;4904167;29;20066;-83
2023/04/05 09:02:03;;;;;;;10.52;8.82;;;;;;;13.77;36.68;102276.09;4919096;29;20043;-84
2023/04/05 09:04:31;;;;;;;12.70;8.63;;;;;;;13.67;39.42;102274.38;4920442;29;20031;-83
2023/04/05 09:06:58;;;;;;;14.30;8.95;;;;;;;14.12;37.82;102263.69;4919901;29;20043;-85
2023/04/05 09:09:24;;;;;;;10.98;7.68;;;;;;;13.91;33.48;102269.94;4929524;29;20502;-84
2023/04/05 09:11:51;;;;;;;11.30;7.95;;;;;;;13.61;35.85;102269.13;4911921;29;20087;-86
2023/04/05 09:14:18;;;;;;;10.57;7.55;;;;;;;12.82;33.37;102267.31;4918338;29;20059;-83
2023/04/05 09:16:43;;;;;;;12.43;7.35;;;;;;;12.98;36.46;102267.34;4922369;29;20433;-84
2023/04/05 09:19:09;;;;;;;9.90;7.32;;;;;;;13.08;35.27;102266.47;4899425;29;20040;-85
2023/04/05 09:22:01;;;;;;;12.13;7.35;;;;;;;13.16;34.37;102262.09;4915531;29;20048;-84
2023/04/05 09:24:36;;;;;;;10.60;7.35;;;;;;;12.42;34.78;102267.22;4915312;29;20054;-84
2023/04/05 09:27:06;;;;;;;12.77;7.93;;;;;;;12.74;38.99;102255.03;4922751;29;20110;-82
2023/04/05 09:29:32;;;;;;;12.40;7.45;;;;;;;12.77;35.79;102253.28;4920374;29;20547;-84
2023/04/05 09:32:01;;;;;;;10.77;7.50;;;;;;;12.68;32.21;102253.25;4919462;29;20167;-84
2023/04/05 09:34:26;;;;;;;10.73;7.38;;;;;;;11.96;34.65;102249.50;4935248;29;20613;-83
2023/04/05 09:36:51;;;;;;;11.65;8.05;;;;;;;11.78;35.97;102255.50;4925620;29;20043;-79
2023/04/05 09:39:21;;;;;;;12.27;8.00;;;;;;;11.93;34.77;102257.38;4911987;29;20050;-83
2023/04/05 09:42:14;;;;;;;10.02;8.10;;;;;;;11.85;37.06;102258.16;4934623;29;20047;-83
2023/04/05 09:44:57;;;;;;;15.85;8.07;;;;;;;11.88;38.79;102247.66;4934302;29;20502;-81
2023/04/05 09:47:29;;;;;;;12.60;8.35;;;;;;;11.90;34.73;102252.06;4917982;29;20139;-81
2023/04/05 09:49:56;;;;;;;11.20;7.85;;;;;;;11.71;35.34;102263.31;4921968;29;20047;-80
2023/04/05 09:52:25;;;;;;;11.80;8.13;;;;;;;11.66;35.75;102246.69;4917718;29;20062;-83
2023/04/05 09:54:56;;;;;;;10.93;7.78;;;;;;;11.55;34.94;102243.97;4921946;29;20046;-82
2023/04/05 09:57:26;;;;;;;10.20;7.63;;;;;;;11.67;35.12;102249.31;4918635;29;20039;-82
2023/04/05 09:59:53;;;;;;;10.35;7.50;;;;;;;11.82;35.18;102251.13;4929631;29;20126;-83
2023/04/05 10:02:20;;;;;;;10.25;7.95;;;;;;;11.71;35.42;102244.94;4901260;29;20043;-79
2023/04/05 10:04:48;;;;;;;11.23;8.07;;;;;;;11.57;35.53;102242.25;4914743;29;20050;-79
2023/04/05 10:07:15;;;;;;;13.30;8.00;;;;;;;11.52;35.88;102239.59;4916752;29;20038;-81
2023/04/05 10:09:42;;;;;;;11.73;8.57;;;;;;;11.46;35.40;102242.16;4935736;29;20043;-82
2023/04/05 10:15:15;;;;;;;12.30;7.85;;;;;;;11.59;36.64;102230.91;5271250;23;20073;-68
2023/04/05 10:17:50;;;;;;;9.88;7.57;;;;;;;11.89;35.72;102229.28;4948536;28;20232;-68
2023/04/05 10:20:23;;;;;;;10.52;7.82;;;;;;;11.70;36.67;102223.06;4956784;28;20061;-68
2023/04/05 10:23:06;;;;;;;12.13;8.57;;;;;;;11.80;34.12;102218.75;4921987;28;20154;-71
2023/04/05 10:25:34;;;;;;;12.98;7.82;;;;;;;12.03;35.69;102218.88;4948772;28;20525;-71
2023/04/05 10:28:30;;;;;;;10.85;7.95;;;;;;;12.03;35.16;102213.63;4952633;28;20390;-71
2023/04/05 10:31:29;;;;;;;10.98;7.93;;;;;;;12.29;36.88;102216.34;4946086;28;20038;-76
2023/04/05 10:34:05;;;;;;;10.73;7.53;;;;;;;12.32;35.79;102214.63;4927231;28;20094;-75
2023/04/05 10:37:00;;;;;;;11.75;7.43;;;;;;;12.35;33.80;102212.00;4949751;28;20077;-76
2023/04/05 10:39:32;;;;;;;10.15;7.00;;;;;;;12.36;35.78;102209.38;4936410;29;20059;-75
2023/04/05 10:42:10;;;;;;;11.23;7.60;;;;;;;12.61;35.86;102206.78;4946937;28;20050;-76
2023/04/05 10:44:38;;;;;;;11.95;7.50;;;;;;;12.64;34.76;102196.25;4956468;28;20042;-73
2023/04/05 10:47:05;;;;;;;12.18;8.07;;;;;;;12.76;36.17;102203.31;4935558;29;20506;-74
2023/04/05 10:49:45;;;;;;;9.43;7.55;;;;;;;12.68;35.51;102207.69;4958758;28;20126;-74
2023/04/05 10:52:12;;;;;;;10.02;7.70;;;;;;;12.68;35.94;102192.75;4955927;28;20356;-74
2023/04/05 10:54:37;;;;;;;11.02;7.40;;;;;;;12.95;36.64;102196.31;4939154;28;20043;-69
2023/04/05 10:57:08;;;;;;;14.10;7.95;;;;;;;12.88;35.76;102194.53;4922112;28;20119;-70
2023/04/05 10:59:35;;;;;;;10.50;7.72;;;;;;;12.82;34.64;102193.66;4958312;28;20066;-70
2023/04/05 11:02:02;;;;;;;9.98;7.45;;;;;;;13.09;35.85;102183.16;4953868;28;20046;-70
2023/04/05 11:04:27;;;;;;;11.52;7.78;;;;;;;12.92;33.21;102184.00;4938619;28;20129;-69
2023/04/05 11:07:13;;;;;;;11.40;8.20;;;;;;;12.80;34.52;102190.16;4953792;28;20567;-69
2023/04/05 11:10:00;;;;;;;10.85;8.52;;;;;;;13.02;36.39;102179.63;4956346;28;20030;-69
2023/04/05 11:12:45;;;;;;;11.80;7.95;;;;;;;13.40;36.46;102180.50;4954249;28;20058;-69
2023/04/05 11:15:30;;;;;;;10.90;7.35;;;;;;;13.76;35.78;102182.13;4956084;28;20149;-70
2023/04/05 11:18:14;;;;;;;9.75;7.65;;;;;;;14.01;34.29;102176.78;4972378;28;20518;-72
2023/04/05 11:20:42;;;;;;;11.68;7.60;;;;;;;13.97;33.19;102169.75;4955898;28;20089;-72
2023/04/05 11:23:13;;;;;;;11.38;8.13;;;;;;;13.68;31.58;102176.03;4938249;28;20479;-71